logo
Search for airport 
image banner adimage banner adimage banner ad
image banner ad

DTGOUB - Goubellat Airstrip

Located in Goubellat, Tunisia

ICAO - , IATA -

Data provided by Airmate  

General information

Coordinates: N36°29'30" E9°40'55"
Elevation is 462 feet MSL.
Magnetic variation is 3° East
View others Airports in Ben Arous Governorate

Operational data

Special qualification required
Current time UTC:
Current local time:
Weather at : DTTA - Tunis/Carthage ( 63 km )
METAR: DTTA 152130Z 35004KT 9999 FEW026 25/22 Q1014
TAF: TAF DTTA 151700Z 1518/1618 01010KT CAVOK BECMG 1610/1612 06010KT
View NOTAMs / SUP AIP / TFR affecting this airport [VIEW]
Communications frequencies: [VIEW]

Runways:

RWY identifierQFULength (ft)Width (ft)SurfaceLDA (ft)
0332°264947GRAV
21212°264947GRAV

Airport contact information

Address: Goubellat Tunisia

Satellite view of DTGOUB